KHFF/HFF METAR and TAF weather

Enter ICAO airport designator
Station Type Date Time Source
KHFF METAR 2022/01/23 11:56 UTC NOAA

KHFF 231156Z AUTO 00000KT 10SM CLR M11/M13 A3008 RMK AO2 SLP195 T11101129 11096 21116 56009


Station Type Date Time Source
KHFF Decoded METAR 2022/01/23 11:56 UTC NOAA

Mackall U. S. Army Airfield, NC, United States (KHFF) 35-02N 079-30W
Jan 23, 2022 - 06:56 AM EST / 2022.01.23 1156 UTC
Wind: Calm:0
Visibility: 10 mile(s):0
Sky conditions: clear
Temperature: 12.2 F (-11.0 C)
Dew Point: 8.8 F (-12.9 C)
Relative Humidity: 85%
Pressure (altimeter): 30.08 in. Hg (1018 hPa)
Pressure tendency: 0.03 inches (0.9 hPa) lower than three hours ago
ob: KHFF 231156Z AUTO 00000KT 10SM CLR M11/M13 A3008 RMK AO2 SLP195 T11101129 11096 21116 56009
cycle: 12

Station Type Date Time Source
KHFF TAF UTC NOAA

Error!

Example: see airport list